Time;durP1;ratioP1;P1;durP2;ratioP2;P2;SDS_P1;SDS_P2;PMS_P1;PMS_P2;Temp;Humidity;BMP_temperature;BMP_pressure;BME280_temperature;BME280_humidity;BME280_pressure;Samples;Min_cycle;Max_cycle;Signal;HPM_P1;HPM_P2
2024/04/04 00:02:17;;;;;;;5.75;0.70;;;;;;;;;;5014712;28;20025;-70
2024/04/04 00:04:43;;;;;;;1.33;0.40;;;;;;;;;;5014666;28;20034;-70
2024/04/04 00:07:09;;;;;;;1.63;0.22;;;;;;;;;;5014442;28;20112;-70
2024/04/04 00:09:35;;;;;;;1.23;0.57;;;;;;;;;;5012934;28;20038;-67
2024/04/04 00:12:01;;;;;;;0.55;0.22;;;;;;;;;;5014332;28;20066;-68
2024/04/04 00:14:27;;;;;;;0.68;0.32;;;;;;;;;;5014099;28;20026;-68
2024/04/04 00:16:53;;;;;;;1.42;0.40;;;;;;;;;;5014096;28;20040;-68
2024/04/04 00:19:19;;;;;;;3.08;0.45;;;;;;;;;;5014328;28;20026;-68
2024/04/04 00:21:45;;;;;;;1.42;0.60;;;;;;;;;;5014124;28;20030;-67
2024/04/04 00:24:11;;;;;;;1.30;0.50;;;;;;;;;;5014175;28;20103;-67
2024/04/04 00:26:37;;;;;;;1.67;0.60;;;;;;;;;;5014257;28;20033;-66
2024/04/04 00:29:03;;;;;;;2.05;1.35;;;;;;;;;;5014207;28;20620;-67
2024/04/04 00:31:29;;;;;;;4.88;0.75;;;;;;;;;;5014088;28;20028;-67
2024/04/04 00:33:56;;;;;;;1.83;0.52;;;;;;;;;;5014161;28;20048;-67
2024/04/04 00:36:23;;;;;;;0.30;0.20;;;;;;;;;;5013892;28;20033;-66
2024/04/04 00:38:48;;;;;;;0.82;0.43;;;;;;;;;;5013835;28;20474;-66
2024/04/04 00:41:14;;;;;;;2.72;0.52;;;;;;;;;;5013810;28;20041;-66
2024/04/04 00:43:40;;;;;;;2.22;0.30;;;;;;;;;;5013928;28;20501;-66
2024/04/04 00:46:07;;;;;;;0.20;0.20;;;;;;;;;;5013754;28;20026;-66
2024/04/04 00:48:32;;;;;;;0.28;0.25;;;;;;;;;;5028906;28;20489;-67
2024/04/04 00:50:59;;;;;;;3.15;0.60;;;;;;;;;;5013434;28;20040;-67
2024/04/04 00:53:26;;;;;;;1.10;0.60;;;;;;;;;;5013444;28;20029;-66
2024/04/04 00:55:54;;;;;;;0.25;0.25;;;;;;;;;;5013413;28;20088;-67
2024/04/04 00:58:20;;;;;;;1.30;0.50;;;;;;;;;;5012980;28;20379;-67
2024/04/04 01:00:46;;;;;;;0.32;0.30;;;;;;;;;;5013493;28;20022;-67
2024/04/04 01:03:12;;;;;;;0.43;0.38;;;;;;;;;;5013207;28;20087;-67
2024/04/04 01:05:38;;;;;;;2.60;0.45;;;;;;;;;;5013329;28;20030;-67
2024/04/04 01:08:05;;;;;;;1.80;0.40;;;;;;;;;;5013448;28;20026;-66
2024/04/04 01:10:31;;;;;;;0.50;0.40;;;;;;;;;;5013250;28;20030;-66
2024/04/04 01:12:57;;;;;;;1.13;0.40;;;;;;;;;;5013376;28;20026;-67
2024/04/04 01:15:23;;;;;;;2.15;0.30;;;;;;;;;;5013133;28;20029;-67
2024/04/04 01:17:49;;;;;;;0.40;0.28;;;;;;;;;;5013362;28;20026;-67
2024/04/04 01:20:15;;;;;;;0.45;0.35;;;;;;;;;;5013120;28;20033;-67
2024/04/04 01:22:41;;;;;;;1.73;0.50;;;;;;;;;;5013116;28;20026;-67
2024/04/04 01:25:07;;;;;;;0.90;0.30;;;;;;;;;;5012755;28;20022;-67
2024/04/04 01:27:33;;;;;;;0.52;0.38;;;;;;;;;;5013166;28;20053;-66
2024/04/04 01:29:59;;;;;;;1.10;0.47;;;;;;;;;;5012982;28;20034;-67
2024/04/04 01:32:25;;;;;;;0.98;0.40;;;;;;;;;;5012801;28;20030;-67
2024/04/04 01:34:51;;;;;;;4.03;0.68;;;;;;;;;;5012940;28;20104;-67
2024/04/04 01:37:17;;;;;;;1.05;0.28;;;;;;;;;;5012804;28;20441;-68
2024/04/04 01:39:43;;;;;;;7.05;0.98;;;;;;;;;;5012790;28;20021;-69
2024/04/04 01:42:09;;;;;;;0.73;0.30;;;;;;;;;;5012980;28;20406;-68
2024/04/04 01:44:35;;;;;;;2.85;0.50;;;;;;;;;;5011231;28;20037;-68
2024/04/04 01:47:01;;;;;;;2.40;0.60;;;;;;;;;;5012718;28;20061;-68
2024/04/04 01:49:27;;;;;;;3.03;0.57;;;;;;;;;;5012840;28;20026;-68
2024/04/04 01:51:53;;;;;;;0.50;0.40;;;;;;;;;;5012522;28;20482;-68
2024/04/04 01:54:20;;;;;;;3.70;0.60;;;;;;;;;;5012641;28;20106;-68
2024/04/04 01:56:46;;;;;;;2.40;0.70;;;;;;;;;;5012319;28;20034;-67
2024/04/04 01:59:12;;;;;;;1.60;0.40;;;;;;;;;;5003682;28;20037;-67
2024/04/04 02:01:38;;;;;;;1.38;0.40;;;;;;;;;;5011023;28;20026;-67
2024/04/04 02:04:04;;;;;;;2.92;0.60;;;;;;;;;;5010950;28;20113;-68
2024/04/04 02:06:30;;;;;;;1.23;0.43;;;;;;;;;;5012382;28;20029;-69
2024/04/04 02:08:56;;;;;;;1.90;0.50;;;;;;;;;;5011700;28;20070;-68
2024/04/04 02:11:22;;;;;;;1.95;0.60;;;;;;;;;;5012159;28;20092;-67
2024/04/04 02:13:48;;;;;;;0.30;0.20;;;;;;;;;;5012327;28;20131;-66
2024/04/04 02:16:16;;;;;;;0.55;0.45;;;;;;;;;;5012271;28;20482;-67
2024/04/04 02:18:43;;;;;;;0.35;0.30;;;;;;;;;;5012226;28;20470;-67
2024/04/04 02:21:09;;;;;;;1.08;0.65;;;;;;;;;;5012298;28;20025;-68
2024/04/04 02:23:35;;;;;;;1.13;0.30;;;;;;;;;;5027210;28;20018;-68
2024/04/04 02:26:01;;;;;;;1.85;0.50;;;;;;;;;;5012066;28;20033;-67
2024/04/04 02:28:27;;;;;;;3.80;0.40;;;;;;;;;;5012242;28;20026;-68
2024/04/04 02:30:53;;;;;;;1.08;0.40;;;;;;;;;;5012047;28;20026;-68
2024/04/04 02:33:19;;;;;;;0.43;0.20;;;;;;;;;;5011863;28;20485;-68
2024/04/04 02:35:51;;;;;;;2.30;0.40;;;;;;;;;;5011652;28;20066;-68
2024/04/04 02:38:17;;;;;;;0.88;0.30;;;;;;;;;;5012027;28;20485;-68
2024/04/04 02:40:43;;;;;;;0.85;0.38;;;;;;;;;;5011974;28;20072;-69
2024/04/04 02:43:10;;;;;;;0.40;0.30;;;;;;;;;;5011869;28;20410;-67
2024/04/04 02:45:36;;;;;;;1.05;0.50;;;;;;;;;;5010519;28;20030;-67
2024/04/04 02:48:02;;;;;;;5.30;0.45;;;;;;;;;;5011832;28;20569;-67
2024/04/04 02:50:28;;;;;;;0.98;0.30;;;;;;;;;;5012106;28;20075;-67
2024/04/04 02:52:54;;;;;;;1.38;0.80;;;;;;;;;;5011692;28;20029;-67
2024/04/04 02:55:20;;;;;;;0.20;0.20;;;;;;;;;;5011656;28;20029;-69
2024/04/04 02:57:46;;;;;;;0.38;0.30;;;;;;;;;;5011775;28;20041;-67
2024/04/04 03:00:13;;;;;;;1.25;0.30;;;;;;;;;;5010250;28;20092;-68
2024/04/04 03:02:39;;;;;;;1.00;0.40;;;;;;;;;;5011915;28;20100;-68
2024/04/04 03:05:05;;;;;;;0.93;0.30;;;;;;;;;;5011772;28;20034;-67
2024/04/04 03:07:32;;;;;;;1.42;0.68;;;;;;;;;;5011776;28;20026;-67
2024/04/04 03:09:58;;;;;;;3.00;0.30;;;;;;;;;;5011401;28;20026;-68
2024/04/04 03:12:24;;;;;;;0.43;0.30;;;;;;;;;;5011608;28;20113;-68
2024/04/04 03:14:50;;;;;;;0.98;0.25;;;;;;;;;;5011672;28;20061;-67
2024/04/04 03:17:16;;;;;;;2.60;0.40;;;;;;;;;;5011799;28;20500;-69
2024/04/04 03:19:42;;;;;;;2.05;0.40;;;;;;;;;;5026747;28;20026;-69
2024/04/04 03:22:08;;;;;;;0.52;0.40;;;;;;;;;;5014755;28;20104;-69
2024/04/04 03:24:36;;;;;;;0.75;0.40;;;;;;;;;;5015596;28;20029;-69
2024/04/04 03:27:02;;;;;;;0.50;0.25;;;;;;;;;;5016082;28;20080;-68
2024/04/04 03:29:28;;;;;;;2.53;0.35;;;;;;;;;;5015398;28;20103;-67
2024/04/04 03:31:54;;;;;;;1.67;0.50;;;;;;;;;;5015193;28;20486;-68
2024/04/04 03:34:20;;;;;;;2.08;0.20;;;;;;;;;;5015350;28;20030;-67
2024/04/04 03:36:49;;;;;;;1.83;0.40;;;;;;;;;;5015286;28;20022;-68
2024/04/04 03:39:15;;;;;;;0.90;0.20;;;;;;;;;;5015222;28;20057;-68
2024/04/04 03:41:41;;;;;;;1.33;0.38;;;;;;;;;;5015014;28;20022;-67
2024/04/04 03:44:08;;;;;;;1.15;0.30;;;;;;;;;;5015223;28;20371;-68
2024/04/04 03:46:34;;;;;;;1.73;0.40;;;;;;;;;;5014897;28;20026;-68
2024/04/04 03:49:00;;;;;;;1.85;0.40;;;;;;;;;;5015026;28;20029;-66
2024/04/04 03:51:26;;;;;;;0.50;0.20;;;;;;;;;;5014886;28;20108;-67
2024/04/04 03:53:52;;;;;;;0.50;0.30;;;;;;;;;;5014756;28;20030;-67
2024/04/04 03:56:18;;;;;;;0.20;0.20;;;;;;;;;;5014393;28;20408;-67
2024/04/04 03:58:44;;;;;;;0.40;0.25;;;;;;;;;;5014693;28;20105;-67
2024/04/04 04:01:11;;;;;;;4.75;0.68;;;;;;;;;;5013076;28;20022;-67
2024/04/04 04:03:37;;;;;;;2.83;0.40;;;;;;;;;;5014582;28;20026;-68
2024/04/04 04:06:03;;;;;;;2.08;0.60;;;;;;;;;;5014466;28;20041;-68
2024/04/04 04:08:29;;;;;;;2.42;0.40;;;;;;;;;;5014585;28;20112;-67
2024/04/04 04:10:55;;;;;;;0.98;0.38;;;;;;;;;;5014470;28;20058;-68
2024/04/04 04:13:21;;;;;;;2.05;0.70;;;;;;;;;;5014290;28;20076;-67
2024/04/04 04:16:01;;;;;;;2.28;0.55;;;;;;;;;;5012456;28;20088;-68
2024/04/04 04:18:27;;;;;;;2.90;0.50;;;;;;;;;;5014427;28;20053;-68
2024/04/04 04:23:38;;;;;;;3.97;0.40;;;;;;;;;;5014530;28;20036;-67
2024/04/04 04:26:04;;;;;;;4.57;0.93;;;;;;;;;;5014118;28;20504;-67
2024/04/04 04:28:30;;;;;;;1.05;0.45;;;;;;;;;;5014248;28;20083;-66
2024/04/04 04:30:56;;;;;;;4.07;0.40;;;;;;;;;;5014069;28;20470;-68
2024/04/04 04:33:22;;;;;;;0.82;0.25;;;;;;;;;;5012805;28;20076;-68
2024/04/04 04:35:48;;;;;;;0.57;0.50;;;;;;;;;;5014074;28;20026;-67
2024/04/04 04:38:14;;;;;;;5.25;0.50;;;;;;;;;;5014168;28;20417;-68
2024/04/04 04:40:43;;;;;;;5.57;0.50;;;;;;;;;;5013961;28;20025;-68
2024/04/04 04:43:10;;;;;;;3.28;0.63;;;;;;;;;;5013738;28;20026;-68
2024/04/04 04:45:36;;;;;;;1.92;0.45;;;;;;;;;;5013735;28;20030;-69
2024/04/04 04:48:02;;;;;;;3.72;0.40;;;;;;;;;;5013769;28;20029;-67
2024/04/04 04:50:28;;;;;;;2.53;0.32;;;;;;;;;;5014128;28;20044;-68
2024/04/04 04:52:54;;;;;;;2.92;0.60;;;;;;;;;;5013590;28;20022;-67
2024/04/04 04:55:20;;;;;;;8.40;0.45;;;;;;;;;;5013396;28;20193;-68
2024/04/04 04:57:46;;;;;;;2.47;0.40;;;;;;;;;;5003018;28;20054;-66
2024/04/04 05:00:14;;;;;;;0.32;0.32;;;;;;;;;;4992319;28;20026;-68
2024/04/04 05:02:40;;;;;;;1.40;0.30;;;;;;;;;;4992568;28;20091;-70
2024/04/04 05:05:13;;;;;;;1.73;0.30;;;;;;;;;;4993771;28;20466;-69
2024/04/04 05:07:39;;;;;;;11.55;0.88;;;;;;;;;;4992795;28;20441;-66
2024/04/04 05:10:06;;;;;;;5.32;1.17;;;;;;;;;;4993449;28;20034;-65
2024/04/04 05:12:32;;;;;;;11.25;1.88;;;;;;;;;;4993142;28;20057;-65
2024/04/04 05:14:58;;;;;;;3.85;0.55;;;;;;;;;;4993532;28;20029;-66
2024/04/04 05:17:24;;;;;;;7.18;0.73;;;;;;;;;;4993531;28;20026;-66
2024/04/04 05:19:50;;;;;;;3.30;0.50;;;;;;;;;;4993639;28;20386;-66
2024/04/04 05:22:16;;;;;;;10.68;1.17;;;;;;;;;;4993348;28;20094;-66
2024/04/04 05:24:42;;;;;;;22.02;1.70;;;;;;;;;;4992188;28;20121;-66
2024/04/04 05:27:08;;;;;;;16.05;1.95;;;;;;;;;;4993372;28;20034;-66
2024/04/04 05:29:34;;;;;;;7.88;1.60;;;;;;;;;;4993276;28;20026;-66
2024/04/04 05:32:00;;;;;;;4.53;1.08;;;;;;;;;;4993243;28;20117;-66
2024/04/04 05:34:26;;;;;;;5.82;1.10;;;;;;;;;;4993497;28;20037;-65
2024/04/04 05:36:54;;;;;;;9.57;1.08;;;;;;;;;;4993438;28;20117;-67
2024/04/04 05:39:20;;;;;;;7.63;1.52;;;;;;;;;;4993291;28;20026;-66
2024/04/04 05:41:48;;;;;;;4.72;1.27;;;;;;;;;;4993059;28;20582;-66
2024/04/04 05:44:14;;;;;;;5.60;1.95;;;;;;;;;;4992863;28;20030;-66
2024/04/04 05:46:41;;;;;;;5.35;0.93;;;;;;;;;;4992997;28;20499;-66
2024/04/04 05:49:07;;;;;;;6.97;0.75;;;;;;;;;;4993210;28;20031;-66
2024/04/04 05:51:33;;;;;;;4.32;1.00;;;;;;;;;;4992965;28;20042;-65
2024/04/04 05:53:59;;;;;;;2.80;1.13;;;;;;;;;;4993023;28;20109;-65
2024/04/04 05:56:25;;;;;;;3.25;0.77;;;;;;;;;;4993143;28;20030;-67
2024/04/04 05:58:51;;;;;;;5.18;1.05;;;;;;;;;;4992854;28;20023;-68
2024/04/04 06:01:17;;;;;;;6.55;1.67;;;;;;;;;;4992770;28;20026;-66
2024/04/04 06:03:43;;;;;;;2.83;0.73;;;;;;;;;;4992933;28;20022;-68
2024/04/04 06:06:10;;;;;;;7.15;0.77;;;;;;;;;;4992447;28;20029;-67
2024/04/04 06:08:36;;;;;;;2.13;0.95;;;;;;;;;;5005177;28;20029;-66
2024/04/04 06:11:02;;;;;;;2.35;0.82;;;;;;;;;;5008839;28;20038;-67
2024/04/04 06:13:28;;;;;;;2.17;0.70;;;;;;;;;;5010117;28;20049;-67
2024/04/04 06:16:02;;;;;;;1.90;0.73;;;;;;;;;;5010401;28;20030;-66
2024/04/04 06:18:28;;;;;;;4.68;0.98;;;;;;;;;;5009298;28;20018;-68
2024/04/04 06:20:54;;;;;;;3.67;0.77;;;;;;;;;;5004552;28;20030;-67
2024/04/04 06:23:20;;;;;;;10.50;1.90;;;;;;;;;;4992182;28;20034;-67
2024/04/04 06:25:46;;;;;;;9.48;1.65;;;;;;;;;;4992455;28;20018;-68
2024/04/04 06:28:12;;;;;;;7.28;1.35;;;;;;;;;;5009133;28;20018;-67
2024/04/04 06:30:38;;;;;;;5.30;1.38;;;;;;;;;;5012256;28;20025;-66
2024/04/04 06:33:04;;;;;;;12.15;1.77;;;;;;;;;;5011842;28;20108;-66
2024/04/04 06:35:30;;;;;;;8.07;1.55;;;;;;;;;;5011972;28;20110;-67
2024/04/04 06:37:57;;;;;;;11.00;1.10;;;;;;;;;;5011516;28;20109;-66
2024/04/04 06:40:23;;;;;;;7.15;1.00;;;;;;;;;;5011792;28;20046;-68
2024/04/04 06:42:48;;;;;;;2.22;0.90;;;;;;;;;;5011706;28;20387;-66
2024/04/04 06:45:14;;;;;;;10.75;1.50;;;;;;;;;;5011807;28;20105;-68
2024/04/04 06:47:41;;;;;;;7.13;1.10;;;;;;;;;;5011233;28;20552;-67
2024/04/04 06:50:07;;;;;;;11.55;1.35;;;;;;;;;;5010692;28;20029;-65
2024/04/04 06:52:33;;;;;;;3.70;0.80;;;;;;;;;;5010759;28;20022;-66
2024/04/04 06:55:00;;;;;;;8.68;1.30;;;;;;;;;;5011540;28;20594;-67
2024/04/04 06:57:26;;;;;;;7.93;1.73;;;;;;;;;;5015497;28;20397;-68
2024/04/04 06:59:52;;;;;;;3.67;1.05;;;;;;;;;;5015792;28;20018;-68
2024/04/04 07:02:18;;;;;;;3.58;0.85;;;;;;;;;;5015545;28;20072;-67
2024/04/04 07:04:44;;;;;;;6.75;1.67;;;;;;;;;;5015829;28;20105;-67
2024/04/04 07:07:10;;;;;;;2.50;1.17;;;;;;;;;;5015642;28;20038;-67
2024/04/04 07:09:37;;;;;;;6.28;1.45;;;;;;;;;;5015925;28;20030;-67
2024/04/04 07:12:03;;;;;;;6.28;1.58;;;;;;;;;;5014541;28;20030;-67
2024/04/04 07:14:29;;;;;;;2.45;1.02;;;;;;;;;;5015729;28;20101;-66
2024/04/04 07:16:55;;;;;;;6.60;1.30;;;;;;;;;;5015218;28;20117;-67
2024/04/04 07:19:21;;;;;;;3.63;1.20;;;;;;;;;;5015559;28;20022;-67
2024/04/04 07:21:49;;;;;;;1.60;0.90;;;;;;;;;;5015212;28;20454;-67
2024/04/04 07:24:15;;;;;;;3.53;1.08;;;;;;;;;;5015344;28;20021;-67
2024/04/04 07:26:44;;;;;;;4.20;0.90;;;;;;;;;;5015226;28;20028;-67
2024/04/04 07:29:10;;;;;;;5.57;0.80;;;;;;;;;;5015449;28;20033;-68
2024/04/04 07:31:36;;;;;;;5.90;1.10;;;;;;;;;;5015446;28;20100;-67
2024/04/04 07:34:02;;;;;;;1.63;0.60;;;;;;;;;;5015587;28;20054;-68
2024/04/04 07:36:28;;;;;;;4.22;0.73;;;;;;;;;;5015252;28;20500;-67
2024/04/04 07:38:54;;;;;;;4.13;0.70;;;;;;;;;;5015362;28;20033;-68
2024/04/04 07:41:20;;;;;;;2.65;0.70;;;;;;;;;;5015322;28;20421;-66
2024/04/04 07:43:47;;;;;;;1.60;0.70;;;;;;;;;;5015591;28;20022;-68
2024/04/04 07:46:13;;;;;;;2.88;0.90;;;;;;;;;;5015026;28;20033;-67
2024/04/04 07:48:42;;;;;;;5.50;1.88;;;;;;;;;;5014955;28;20105;-67
2024/04/04 07:51:09;;;;;;;1.20;0.55;;;;;;;;;;5014782;28;20053;-68
2024/04/04 07:53:35;;;;;;;3.13;0.82;;;;;;;;;;5014541;28;20030;-68
2024/04/04 07:56:01;;;;;;;1.65;0.57;;;;;;;;;;5014551;28;20513;-67
2024/04/04 07:58:27;;;;;;;1.52;0.50;;;;;;;;;;5014764;28;20030;-69
2024/04/04 08:00:53;;;;;;;4.70;1.20;;;;;;;;;;5014783;28;20022;-67
2024/04/04 08:03:20;;;;;;;1.10;0.47;;;;;;;;;;5014579;28;20541;-67
2024/04/04 08:05:46;;;;;;;1.38;0.40;;;;;;;;;;5014783;28;20014;-69
2024/04/04 08:08:13;;;;;;;1.75;0.50;;;;;;;;;;5014598;28;20037;-69
2024/04/04 08:10:39;;;;;;;2.00;0.70;;;;;;;;;;5014617;28;20032;-68
2024/04/04 08:13:06;;;;;;;3.05;0.70;;;;;;;;;;5014424;28;20029;-68
2024/04/04 08:15:32;;;;;;;5.25;0.60;;;;;;;;;;5013871;28;20026;-67
2024/04/04 08:17:58;;;;;;;3.67;0.75;;;;;;;;;;5013478;28;20565;-67
2024/04/04 08:20:24;;;;;;;1.80;0.47;;;;;;;;;;5013427;28;20030;-68
2024/04/04 08:22:51;;;;;;;2.90;0.68;;;;;;;;;;5013323;28;20034;-67
2024/04/04 08:25:19;;;;;;;2.08;0.50;;;;;;;;;;5013508;28;20022;-67
2024/04/04 08:27:45;;;;;;;2.40;0.70;;;;;;;;;;5013585;28;20095;-67
2024/04/04 08:30:11;;;;;;;1.25;0.40;;;;;;;;;;5012800;28;20105;-67
2024/04/04 08:32:38;;;;;;;1.95;0.60;;;;;;;;;;5013157;28;20552;-67
2024/04/04 08:35:06;;;;;;;1.75;0.60;;;;;;;;;;5012716;28;20450;-67
2024/04/04 08:37:32;;;;;;;1.75;0.70;;;;;;;;;;5012820;28;20033;-67
2024/04/04 08:39:58;;;;;;;2.28;0.90;;;;;;;;;;5012774;28;20028;-68
2024/04/04 08:42:26;;;;;;;2.00;0.60;;;;;;;;;;5012514;28;20171;-67
2024/04/04 08:44:53;;;;;;;1.40;0.60;;;;;;;;;;5012478;28;20111;-67
2024/04/04 08:47:19;;;;;;;1.75;0.65;;;;;;;;;;5012583;28;20026;-68
2024/04/04 08:49:48;;;;;;;0.60;0.50;;;;;;;;;;5012357;28;20112;-67
2024/04/04 08:52:18;;;;;;;0.77;0.60;;;;;;;;;;5012239;28;20113;-68
2024/04/04 08:54:44;;;;;;;2.15;0.60;;;;;;;;;;5012727;28;20053;-67
2024/04/04 08:57:10;;;;;;;1.50;0.70;;;;;;;;;;5012345;28;20500;-67
2024/04/04 08:59:36;;;;;;;1.75;0.50;;;;;;;;;;5012255;28;20025;-68
2024/04/04 09:02:02;;;;;;;1.35;0.45;;;;;;;;;;5012009;28;20440;-68
2024/04/04 09:04:30;;;;;;;1.90;0.50;;;;;;;;;;5013317;28;20065;-68
2024/04/04 09:06:56;;;;;;;2.80;1.02;;;;;;;;;;5021419;28;20029;-69
2024/04/04 09:09:23;;;;;;;1.63;0.70;;;;;;;;;;5031887;28;20397;-67
2024/04/04 09:11:49;;;;;;;1.85;0.40;;;;;;;;;;5031864;28;20036;-68
2024/04/04 09:14:16;;;;;;;2.83;0.40;;;;;;;;;;5031782;28;20033;-67
2024/04/04 09:16:46;;;;;;;5.43;1.35;;;;;;;;;;5014226;28;20026;-70
2024/04/04 09:19:20;;;;;;;4.72;1.17;;;;;;;;;;5021272;28;20018;-68
2024/04/04 09:21:46;;;;;;;2.25;0.63;;;;;;;;;;5025488;28;20033;-67
2024/04/04 09:24:16;;;;;;;1.48;0.75;;;;;;;;;;5010429;28;20033;-67
2024/04/04 09:26:49;;;;;;;5.22;0.80;;;;;;;;;;4992179;28;20042;-68
2024/04/04 09:29:16;;;;;;;1.50;0.60;;;;;;;;;;5011093;28;20025;-69
2024/04/04 09:31:43;;;;;;;6.57;0.90;;;;;;;;;;5031376;28;20374;-67
2024/04/04 09:34:13;;;;;;;4.15;0.63;;;;;;;;;;5016512;28;20454;-67
2024/04/04 09:36:39;;;;;;;2.22;0.63;;;;;;;;;;5011478;28;20059;-67
2024/04/04 09:39:09;;;;;;;2.72;0.77;;;;;;;;;;5025375;28;20069;-67
2024/04/04 09:41:37;;;;;;;155.00;12.02;;;;;;;;;;5030927;28;20025;-68
2024/04/04 09:44:05;;;;;;;3.13;0.77;;;;;;;;;;5031160;28;20029;-68
2024/04/04 09:46:34;;;;;;;3.13;0.70;;;;;;;;;;5012794;28;20030;-67
2024/04/04 09:49:00;;;;;;;6.05;1.35;;;;;;;;;;5011736;28;20443;-67
2024/04/04 09:51:27;;;;;;;7.93;1.38;;;;;;;;;;5011282;28;20112;-67
2024/04/04 09:53:54;;;;;;;2.92;0.80;;;;;;;;;;5016594;28;20033;-69
2024/04/04 09:56:21;;;;;;;1.60;0.60;;;;;;;;;;5030756;28;20044;-67
2024/04/04 09:58:48;;;;;;;3.55;0.60;;;;;;;;;;5030984;28;20040;-68
2024/04/04 10:01:23;;;;;;;2.22;0.98;;;;;;;;;;5015605;28;20014;-67
2024/04/04 10:03:52;;;;;;;2.80;1.10;;;;;;;;;;5010729;28;20018;-67
2024/04/04 10:06:41;;;;;;;2.60;0.90;;;;;;;;;;5010701;28;20030;-67
2024/04/04 10:09:24;;;;;;;3.55;0.80;;;;;;;;;;5008670;28;20026;-67
2024/04/04 10:11:50;;;;;;;2.85;0.80;;;;;;;;;;5010708;28;20030;-67
2024/04/04 10:14:26;;;;;;;1.75;0.57;;;;;;;;;;5010832;28;20061;-67
2024/04/04 10:16:56;;;;;;;2.85;0.82;;;;;;;;;;5009230;28;20037;-68
2024/04/04 10:19:23;;;;;;;2.67;0.68;;;;;;;;;;5010702;28;20028;-68
2024/04/04 10:21:49;;;;;;;1.30;0.60;;;;;;;;;;5010447;28;20033;-67
2024/04/04 10:24:20;;;;;;;1.27;0.70;;;;;;;;;;5010879;28;20554;-66
2024/04/04 10:26:54;;;;;;;1.48;0.75;;;;;;;;;;5011117;28;20049;-67
2024/04/04 10:29:20;;;;;;;1.77;0.70;;;;;;;;;;5010575;28;20061;-65
2024/04/04 10:31:46;;;;;;;2.53;1.02;;;;;;;;;;5008245;28;20026;-66
2024/04/04 10:34:13;;;;;;;4.68;1.23;;;;;;;;;;5012078;28;20018;-67
2024/04/04 10:36:39;;;;;;;2.90;0.95;;;;;;;;;;5012681;28;20142;-66
2024/04/04 10:39:07;;;;;;;5.60;1.05;;;;;;;;;;5013017;28;20022;-65
2024/04/04 10:41:33;;;;;;;3.72;1.13;;;;;;;;;;5012858;28;20108;-66
2024/04/04 10:43:59;;;;;;;1.60;0.80;;;;;;;;;;5012761;28;20019;-66
2024/04/04 10:46:25;;;;;;;2.78;1.42;;;;;;;;;;5011057;28;20030;-65
2024/04/04 10:48:51;;;;;;;2.75;0.98;;;;;;;;;;5011216;28;20405;-65
2024/04/04 10:51:17;;;;;;;2.47;0.60;;;;;;;;;;5008844;28;20026;-64
2024/04/04 10:53:43;;;;;;;1.80;0.93;;;;;;;;;;5007799;28;20088;-64
2024/04/04 10:56:10;;;;;;;3.03;0.77;;;;;;;;;;5012213;28;20457;-64
2024/04/04 10:58:37;;;;;;;3.20;0.88;;;;;;;;;;5012569;28;20470;-64
2024/04/04 11:01:04;;;;;;;1.20;0.50;;;;;;;;;;5011962;28;20032;-64
2024/04/04 11:03:30;;;;;;;1.80;0.77;;;;;;;;;;5012345;28;20056;-63
2024/04/04 11:05:59;;;;;;;1.63;0.70;;;;;;;;;;5012079;28;20390;-64
2024/04/04 11:08:25;;;;;;;3.42;0.63;;;;;;;;;;5012471;28;20461;-65
2024/04/04 11:10:51;;;;;;;4.43;1.08;;;;;;;;;;5011749;28;20022;-64
2024/04/04 11:13:17;;;;;;;4.07;1.10;;;;;;;;;;5012027;28;20030;-64
2024/04/04 11:15:43;;;;;;;2.40;0.85;;;;;;;;;;5011881;28;20152;-64
2024/04/04 11:18:09;;;;;;;1.95;0.70;;;;;;;;;;5012725;28;20026;-63
2024/04/04 11:20:35;;;;;;;2.50;0.60;;;;;;;;;;5012316;28;20026;-62
2024/04/04 11:23:01;;;;;;;2.40;0.60;;;;;;;;;;5012182;28;20045;-67
2024/04/04 11:25:28;;;;;;;6.85;1.05;;;;;;;;;;5012278;28;20060;-65
2024/04/04 11:27:54;;;;;;;5.80;1.33;;;;;;;;;;5012230;28;20076;-64
2024/04/04 11:30:20;;;;;;;5.68;1.02;;;;;;;;;;5012859;28;20038;-65
2024/04/04 11:32:46;;;;;;;9.80;1.45;;;;;;;;;;5011075;28;20025;-64
2024/04/04 11:35:13;;;;;;;7.10;0.95;;;;;;;;;;5012511;28;20050;-64
2024/04/04 11:37:39;;;;;;;5.25;1.00;;;;;;;;;;5012649;28;20674;-63
2024/04/04 11:40:09;;;;;;;7.43;0.85;;;;;;;;;;5011995;28;20029;-62
2024/04/04 11:42:35;;;;;;;4.53;1.23;;;;;;;;;;5016952;28;20033;-64
2024/04/04 11:45:01;;;;;;;4.85;1.02;;;;;;;;;;5015037;28;20028;-64
2024/04/04 11:47:27;;;;;;;5.28;0.85;;;;;;;;;;5015421;28;20113;-65
2024/04/04 11:49:53;;;;;;;3.92;0.68;;;;;;;;;;5015549;28;20397;-64
2024/04/04 11:52:19;;;;;;;4.95;1.08;;;;;;;;;;5014736;28;20034;-65
2024/04/04 11:54:47;;;;;;;4.90;0.60;;;;;;;;;;5013918;28;20022;-65
2024/04/04 11:57:13;;;;;;;8.77;1.23;;;;;;;;;;5033758;22;20071;-68
2024/04/04 11:59:39;;;;;;;6.20;1.38;;;;;;;;;;5012580;28;20026;-68
2024/04/04 12:02:06;;;;;;;1.52;0.35;;;;;;;;;;5014525;28;20025;-67
2024/04/04 12:04:41;;;;;;;1.98;0.98;;;;;;;;;;5014612;28;20548;-67
2024/04/04 12:07:07;;;;;;;6.85;1.17;;;;;;;;;;5014608;28;20030;-67
2024/04/04 12:09:34;;;;;;;2.75;0.77;;;;;;;;;;5013133;28;20168;-68
2024/04/04 12:12:00;;;;;;;2.42;0.82;;;;;;;;;;5014325;28;20022;-68
2024/04/04 12:14:26;;;;;;;6.70;0.70;;;;;;;;;;5014474;28;20025;-68
2024/04/04 12:16:54;;;;;;;2.42;0.57;;;;;;;;;;5014464;28;20156;-68
2024/04/04 12:19:25;;;;;;;3.35;0.98;;;;;;;;;;5014335;28;20540;-68
2024/04/04 12:21:52;;;;;;;4.43;0.88;;;;;;;;;;5014524;28;20030;-68
2024/04/04 12:24:18;;;;;;;6.72;1.13;;;;;;;;;;5014424;28;20029;-68
2024/04/04 12:26:44;;;;;;;3.55;0.70;;;;;;;;;;5012871;28;20040;-68
2024/04/04 12:29:11;;;;;;;4.25;1.20;;;;;;;;;;5029685;28;20397;-69
2024/04/04 12:31:37;;;;;;;4.55;0.70;;;;;;;;;;5014159;28;20036;-68
2024/04/04 12:34:03;;;;;;;0.82;0.65;;;;;;;;;;5014680;28;20034;-68
2024/04/04 12:36:29;;;;;;;1.90;0.52;;;;;;;;;;5014069;28;20581;-68
2024/04/04 12:38:55;;;;;;;1.58;0.52;;;;;;;;;;5012610;28;20375;-67
2024/04/04 12:41:21;;;;;;;3.22;0.75;;;;;;;;;;5013964;28;20038;-68
2024/04/04 12:43:47;;;;;;;0.98;0.50;;;;;;;;;;5013898;28;20531;-68
2024/04/04 12:46:14;;;;;;;1.58;0.80;;;;;;;;;;5014135;28;20030;-68
2024/04/04 12:48:46;;;;;;;0.65;0.32;;;;;;;;;;5013936;28;20033;-67
2024/04/04 12:51:12;;;;;;;2.85;0.65;;;;;;;;;;5013868;28;20034;-69
2024/04/04 12:53:38;;;;;;;3.15;1.00;;;;;;;;;;5012816;28;20049;-68
2024/04/04 12:56:04;;;;;;;1.27;0.50;;;;;;;;;;5013610;28;20065;-67
2024/04/04 12:58:31;;;;;;;1.25;0.47;;;;;;;;;;5013696;28;20498;-67
2024/04/04 13:01:00;;;;;;;2.50;1.00;;;;;;;;;;5013693;28;20026;-67
2024/04/04 13:03:29;;;;;;;1.67;0.57;;;;;;;;;;5013447;28;20136;-67
2024/04/04 13:05:56;;;;;;;7.22;0.60;;;;;;;;;;5013446;28;20026;-68
2024/04/04 13:08:22;;;;;;;3.15;0.65;;;;;;;;;;5013660;28;20035;-68
2024/04/04 13:10:48;;;;;;;1.98;0.65;;;;;;;;;;5013526;28;20041;-69
2024/04/04 13:13:14;;;;;;;3.30;0.60;;;;;;;;;;5013267;28;20022;-69
2024/04/04 13:15:40;;;;;;;2.60;0.68;;;;;;;;;;5013323;28;20502;-67
2024/04/04 13:18:06;;;;;;;6.75;0.82;;;;;;;;;;5013444;28;20029;-67
2024/04/04 13:20:32;;;;;;;4.55;0.80;;;;;;;;;;5013523;28;20557;-68
2024/04/04 13:22:58;;;;;;;3.85;0.50;;;;;;;;;;5023193;28;20064;-68
2024/04/04 13:25:25;;;;;;;5.10;0.77;;;;;;;;;;5031891;28;20549;-68
2024/04/04 13:27:51;;;;;;;4.85;0.60;;;;;;;;;;5012061;28;20022;-69
2024/04/04 13:30:18;;;;;;;5.13;0.73;;;;;;;;;;5029031;28;20432;-68
2024/04/04 13:32:44;;;;;;;7.55;0.88;;;;;;;;;;5025176;28;20121;-68
2024/04/04 13:35:10;;;;;;;2.30;0.47;;;;;;;;;;4998292;28;20093;-68
2024/04/04 13:37:36;;;;;;;5.18;1.10;;;;;;;;;;5022918;28;20059;-68
2024/04/04 13:40:03;;;;;;;3.65;1.00;;;;;;;;;;5008218;28;20532;-68
2024/04/04 13:42:29;;;;;;;2.78;0.90;;;;;;;;;;4993355;28;20372;-69
2024/04/04 13:44:55;;;;;;;3.83;0.80;;;;;;;;;;4993317;28;20030;-68
2024/04/04 13:47:21;;;;;;;7.95;1.00;;;;;;;;;;4993824;28;20031;-69
2024/04/04 13:49:47;;;;;;;3.13;0.60;;;;;;;;;;4993443;28;20030;-68
2024/04/04 13:52:13;;;;;;;2.25;0.90;;;;;;;;;;4993420;28;20033;-68
2024/04/04 13:54:39;;;;;;;2.38;0.63;;;;;;;;;;4993154;28;20033;-68
2024/04/04 13:57:06;;;;;;;1.85;0.50;;;;;;;;;;4992792;28;20034;-69
2024/04/04 13:59:32;;;;;;;2.88;0.60;;;;;;;;;;4992953;28;20057;-70
2024/04/04 14:02:07;;;;;;;3.38;0.88;;;;;;;;;;4992707;28;20018;-69
2024/04/04 14:04:35;;;;;;;3.90;1.10;;;;;;;;;;4992837;28;20475;-69
2024/04/04 14:07:03;;;;;;;6.18;1.13;;;;;;;;;;4993007;28;20054;-69
2024/04/04 14:09:29;;;;;;;8.80;0.93;;;;;;;;;;4992834;28;20022;-70
2024/04/04 14:11:55;;;;;;;3.42;0.95;;;;;;;;;;4992564;28;20026;-70
2024/04/04 14:14:21;;;;;;;7.65;1.02;;;;;;;;;;4992675;28;20693;-70
2024/04/04 14:16:47;;;;;;;6.03;1.15;;;;;;;;;;4992406;28;20034;-68
2024/04/04 14:19:13;;;;;;;8.32;1.27;;;;;;;;;;4992498;28;20035;-67
2024/04/04 14:21:39;;;;;;;5.72;0.63;;;;;;;;;;4992283;28;20026;-67
2024/04/04 14:24:05;;;;;;;3.78;0.82;;;;;;;;;;4992363;28;20478;-68
2024/04/04 14:26:31;;;;;;;3.88;0.70;;;;;;;;;;4992370;28;20026;-68
2024/04/04 14:28:57;;;;;;;5.97;1.10;;;;;;;;;;4992473;28;20037;-69
2024/04/04 14:31:24;;;;;;;5.22;1.08;;;;;;;;;;4992052;28;20037;-68
2024/04/04 14:33:50;;;;;;;9.55;0.90;;;;;;;;;;4992207;28;20122;-68
2024/04/04 14:36:16;;;;;;;2.20;0.50;;;;;;;;;;4992068;28;20109;-67
2024/04/04 14:38:42;;;;;;;2.05;0.43;;;;;;;;;;4992570;28;20027;-67
2024/04/04 14:41:08;;;;;;;3.40;0.70;;;;;;;;;;4992332;28;20121;-67
2024/04/04 14:43:34;;;;;;;3.88;0.80;;;;;;;;;;4992265;28;20049;-68